EIKY/KIR METAR and TAF weather

Enter ICAO airport designator
Station Type Date Time Source
EIKY METAR 2021/03/01 19:00 UTC NOAA

EIKY 011900Z 13005KT 100V170 9999 OVC027 07/03 Q1027


Station Type Date Time Source
EIKY Decoded METAR 2021/03/01 19:00 UTC NOAA

Station name not available
Mar 01, 2021 - 02:00 PM EST / 2021.03.01 1900 UTC
Wind: from the SE (130 degrees) at 6 MPH (5 KT) (direction variable):0
Visibility: greater than 7 mile(s):0
Sky conditions: overcast
Temperature: 44 F (7 C)
Dew Point: 37 F (3 C)
Relative Humidity: 75%
Pressure (altimeter): 30.33 in. Hg (1027 hPa)
ob: EIKY 011900Z 13005KT 100V170 9999 OVC027 07/03 Q1027
cycle: 19

Station Type Date Time Source
EIKY TAF UTC NOAA

Error!

Example: see airport list